Terminal Aerodrome Forecast
Issued by NWS

Home | Current Version | Previous Version | Text Only | Print | Product List | Glossary On
Versions: 1 2 3 4 5 6 7 8 9 10 11 12 13 14 15
051
FTUS44 KLZK 121125
TAFLIT
TAF
KLIT 121125Z 1212/1312 06008KT P6SM BKN250
     FM121600 01007KT P6SM FEW035 SCT250
     FM130000 VRB06KT P6SM BKN060=

USA.gov is the U.S. government's official web portal to all federal, state and local government web resources and services.